Time;durP1;ratioP1;P1;durP2;ratioP2;P2;SDS_P1;SDS_P2;PMS_P1;PMS_P2;Temp;Humidity;BMP_temperature;BMP_pressure;BME280_temperature;BME280_humidity;BME280_pressure;Samples;Min_cycle;Max_cycle;Signal;HPM_P1;HPM_P2
2023/06/26 00:01:03;;;;;;;;;;;23.00;73.90;;;;;;5014738;28;87615;-44
2023/06/26 00:03:28;;;;;;;;;;;23.00;74.00;;;;;;5014838;28;86330;-45
2023/06/26 00:05:54;;;;;;;;;;;22.90;74.00;;;;;;5013523;28;87129;-43
2023/06/26 00:08:20;;;;;;;;;;;22.90;74.00;;;;;;5013769;28;88299;-43
2023/06/26 00:10:46;;;;;;;;;;;22.90;74.00;;;;;;5014202;28;88400;-43
2023/06/26 00:13:12;;;;;;;;;;;22.90;74.00;;;;;;5013220;28;88371;-43
2023/06/26 00:15:37;;;;;;;;;;;22.90;74.00;;;;;;5010820;28;89565;-43
2023/06/26 00:18:03;;;;;;;;;;;22.90;74.00;;;;;;5015372;28;87111;-44
2023/06/26 00:20:29;;;;;;;;;;;22.90;74.00;;;;;;5008995;28;87020;-43
2023/06/26 00:22:55;;;;;;;;;;;22.90;74.00;;;;;;5018382;28;88097;-44
2023/06/26 00:25:20;;;;;;;;;;;22.90;74.00;;;;;;5012278;28;89068;-43
2023/06/26 00:27:46;;;;;;;;;;;22.90;74.00;;;;;;5016311;28;86490;-43
2023/06/26 00:30:12;;;;;;;;;;;22.90;74.00;;;;;;5007103;28;87166;-43
2023/06/26 00:32:37;;;;;;;;;;;22.90;74.00;;;;;;5011978;28;87137;-45
2023/06/26 00:35:03;;;;;;;;;;;22.90;74.00;;;;;;5013642;28;89376;-43
2023/06/26 00:37:28;;;;;;;;;;;22.90;74.10;;;;;;5011888;28;87183;-44
2023/06/26 00:39:54;;;;;;;;;;;22.80;74.00;;;;;;5011043;28;87664;-43
2023/06/26 00:42:19;;;;;;;;;;;22.80;74.00;;;;;;5013981;28;87955;-43
2023/06/26 00:44:45;;;;;;;;;;;22.80;74.00;;;;;;5015664;28;87179;-45
2023/06/26 00:47:13;;;;;;;;;;;22.80;74.00;;;;;;5012261;28;88074;-45
2023/06/26 00:49:38;;;;;;;;;;;22.80;74.00;;;;;;5010341;28;87096;-44
2023/06/26 00:52:04;;;;;;;;;;;22.80;74.00;;;;;;5011661;28;86930;-44
2023/06/26 00:54:30;;;;;;;;;;;22.80;74.00;;;;;;5012804;28;88017;-44
2023/06/26 00:56:55;;;;;;;;;;;22.80;74.00;;;;;;5013151;28;87170;-43
2023/06/26 00:59:21;;;;;;;;;;;22.80;74.00;;;;;;5012075;28;88068;-43
2023/06/26 01:01:48;;;;;;;;;;;22.80;74.10;;;;;;5011524;28;88071;-44
2023/06/26 01:04:17;;;;;;;;;;;22.70;74.00;;;;;;5013177;28;87091;-44
2023/06/26 01:06:48;;;;;;;;;;;22.80;74.00;;;;;;5012943;28;87291;-43
2023/06/26 01:09:18;;;;;;;;;;;22.80;74.10;;;;;;5013062;28;87149;-43
2023/06/26 01:11:43;;;;;;;;;;;22.70;74.00;;;;;;5011775;28;87123;-44
2023/06/26 01:14:09;;;;;;;;;;;22.70;74.00;;;;;;5012672;28;88215;-44
2023/06/26 01:16:35;;;;;;;;;;;22.70;74.10;;;;;;5012758;28;86756;-43
2023/06/26 01:19:01;;;;;;;;;;;22.70;74.00;;;;;;5013595;28;87023;-43
2023/06/26 01:21:32;;;;;;;;;;;22.70;74.10;;;;;;5007855;28;89162;-43
2023/06/26 01:24:20;;;;;;;;;;;22.70;74.00;;;;;;5013124;28;87841;-44
2023/06/26 01:26:48;;;;;;;;;;;22.70;74.10;;;;;;5012265;28;90181;-44
2023/06/26 01:29:14;;;;;;;;;;;22.70;74.10;;;;;;5013329;28;87094;-46
2023/06/26 01:31:40;;;;;;;;;;;22.70;74.10;;;;;;5010751;28;87717;-43
2023/06/26 01:34:06;;;;;;;;;;;22.60;74.00;;;;;;5011501;28;87812;-44
2023/06/26 01:36:32;;;;;;;;;;;22.60;74.00;;;;;;5009946;28;87134;-45
2023/06/26 01:38:57;;;;;;;;;;;22.60;74.00;;;;;;5013601;28;88028;-43
2023/06/26 01:41:23;;;;;;;;;;;22.60;74.10;;;;;;5008548;28;87282;-43
2023/06/26 01:44:06;;;;;;;;;;;22.60;74.00;;;;;;5014187;28;87007;-44
2023/06/26 01:46:47;;;;;;;;;;;22.60;74.10;;;;;;5013619;28;89303;-46
2023/06/26 01:49:13;;;;;;;;;;;22.60;74.10;;;;;;5010170;28;89133;-44
2023/06/26 01:51:45;;;;;;;;;;;22.60;74.10;;;;;;5008670;28;88412;-45
2023/06/26 01:54:15;;;;;;;;;;;22.60;74.20;;;;;;5011587;28;90120;-45
2023/06/26 01:56:42;;;;;;;;;;;22.60;74.10;;;;;;5012535;28;87103;-46
2023/06/26 01:59:08;;;;;;;;;;;22.50;74.10;;;;;;5013118;28;87597;-44
2023/06/26 02:01:34;;;;;;;;;;;22.50;74.20;;;;;;5010876;28;87387;-47
2023/06/26 02:04:00;;;;;;;;;;;22.50;74.20;;;;;;5013189;28;87760;-43
2023/06/26 02:06:25;;;;;;;;;;;22.50;74.10;;;;;;5010551;28;87198;-44
2023/06/26 02:08:51;;;;;;;;;;;22.50;74.10;;;;;;5011022;28;87254;-44
2023/06/26 02:11:16;;;;;;;;;;;22.50;74.10;;;;;;5016965;28;87952;-44
2023/06/26 02:13:41;;;;;;;;;;;22.50;74.20;;;;;;5009268;28;89722;-44
2023/06/26 02:16:07;;;;;;;;;;;22.40;74.20;;;;;;5008599;28;87145;-43
2023/06/26 02:18:32;;;;;;;;;;;22.50;74.10;;;;;;5010658;28;87491;-43
2023/06/26 02:20:58;;;;;;;;;;;22.50;74.10;;;;;;5010013;28;88324;-43
2023/06/26 02:23:23;;;;;;;;;;;22.50;74.20;;;;;;5013723;28;87227;-44
2023/06/26 02:25:49;;;;;;;;;;;22.40;74.10;;;;;;5011036;28;87618;-45
2023/06/26 02:28:14;;;;;;;;;;;22.40;74.10;;;;;;5013102;28;88520;-43
2023/06/26 02:30:40;;;;;;;;;;;22.40;74.20;;;;;;5012182;28;86378;-43
2023/06/26 02:33:05;;;;;;;;;;;22.40;74.10;;;;;;5014223;28;87035;-43
2023/06/26 02:35:32;;;;;;;;;;;22.40;74.10;;;;;;5012568;28;87185;-43
2023/06/26 02:37:58;;;;;;;;;;;22.40;74.20;;;;;;5010474;28;88853;-43
2023/06/26 02:40:23;;;;;;;;;;;22.40;74.20;;;;;;5011488;28;88141;-43
2023/06/26 02:42:49;;;;;;;;;;;22.40;74.20;;;;;;5012288;28;87097;-43
2023/06/26 02:45:14;;;;;;;;;;;22.30;74.20;;;;;;5011395;28;89280;-43
2023/06/26 02:47:40;;;;;;;;;;;22.40;74.20;;;;;;5010683;28;88365;-46
2023/06/26 02:50:06;;;;;;;;;;;22.30;74.20;;;;;;5012445;28;87112;-44
2023/06/26 02:52:32;;;;;;;;;;;22.30;74.20;;;;;;5010278;28;87844;-43
2023/06/26 02:54:57;;;;;;;;;;;22.30;74.20;;;;;;5015954;28;87169;-44
2023/06/26 02:57:23;;;;;;;;;;;22.30;74.10;;;;;;5010341;28;88106;-43
2023/06/26 02:59:48;;;;;;;;;;;22.30;74.10;;;;;;5012924;28;87911;-43
2023/06/26 03:02:14;;;;;;;;;;;22.30;74.20;;;;;;5008570;28;89079;-45
2023/06/26 03:04:39;;;;;;;;;;;22.30;74.20;;;;;;5013559;28;88447;-43
2023/06/26 03:07:05;;;;;;;;;;;22.30;74.30;;;;;;5016117;28;87998;-43
2023/06/26 03:09:30;;;;;;;;;;;22.30;74.20;;;;;;5012422;28;87190;-43
2023/06/26 03:11:56;;;;;;;;;;;22.30;74.10;;;;;;5015108;28;87556;-43
2023/06/26 03:14:22;;;;;;;;;;;22.30;74.20;;;;;;5012101;28;89332;-44
2023/06/26 03:16:47;;;;;;;;;;;22.20;74.50;;;;;;5015115;28;87190;-43
2023/06/26 03:19:13;;;;;;;;;;;22.20;74.40;;;;;;5016337;28;87344;-44
2023/06/26 03:21:38;;;;;;;;;;;22.20;74.30;;;;;;5007536;28;87202;-43
2023/06/26 03:24:04;;;;;;;;;;;22.20;74.30;;;;;;5007532;28;87465;-43
2023/06/26 03:26:29;;;;;;;;;;;22.20;74.20;;;;;;5011344;28;88143;-43
2023/06/26 03:28:55;;;;;;;;;;;22.20;74.20;;;;;;5015038;28;87109;-44
2023/06/26 03:31:20;;;;;;;;;;;22.20;74.30;;;;;;5006761;28;87799;-43
2023/06/26 03:33:46;;;;;;;;;;;22.20;74.40;;;;;;5006090;28;87738;-43
2023/06/26 03:36:11;;;;;;;;;;;22.20;74.30;;;;;;5015530;28;87229;-44
2023/06/26 03:38:37;;;;;;;;;;;22.10;74.40;;;;;;5013149;28;88655;-44
2023/06/26 03:41:03;;;;;;;;;;;22.20;74.30;;;;;;5010666;28;87624;-43
2023/06/26 03:43:29;;;;;;;;;;;22.10;74.30;;;;;;5002906;28;87890;-43
2023/06/26 03:45:54;;;;;;;;;;;22.20;74.30;;;;;;5011718;28;88348;-45
2023/06/26 03:48:20;;;;;;;;;;;22.10;74.30;;;;;;5010812;28;87106;-43
2023/06/26 03:50:45;;;;;;;;;;;22.10;74.30;;;;;;5011737;28;88744;-44
2023/06/26 03:53:11;;;;;;;;;;;22.10;74.40;;;;;;5003086;28;88600;-43
2023/06/26 03:55:38;;;;;;;;;;;22.10;74.30;;;;;;5008907;28;87031;-45
2023/06/26 03:58:04;;;;;;;;;;;22.10;74.30;;;;;;5017310;28;88327;-43
2023/06/26 04:00:30;;;;;;;;;;;22.10;74.30;;;;;;4998649;28;88925;-44
2023/06/26 04:02:55;;;;;;;;;;;22.10;74.30;;;;;;5002540;28;87599;-43
2023/06/26 04:05:20;;;;;;;;;;;22.10;74.20;;;;;;5012754;28;88157;-43
2023/06/26 04:07:49;;;;;;;;;;;22.10;74.30;;;;;;5012457;28;86548;-43
2023/06/26 04:10:14;;;;;;;;;;;22.10;74.20;;;;;;5008865;28;87098;-43
2023/06/26 04:12:40;;;;;;;;;;;22.10;74.30;;;;;;5010984;28;87503;-43
2023/06/26 04:15:06;;;;;;;;;;;22.10;74.30;;;;;;5011414;28;88245;-43
2023/06/26 04:17:31;;;;;;;;;;;22.10;74.30;;;;;;5010689;28;87354;-44
2023/06/26 04:19:57;;;;;;;;;;;22.10;74.20;;;;;;5004701;28;88009;-43
2023/06/26 04:22:22;;;;;;;;;;;22.10;74.20;;;;;;5012801;28;87347;-43
2023/06/26 04:24:48;;;;;;;;;;;22.00;74.30;;;;;;5013450;28;89462;-43
2023/06/26 04:27:13;;;;;;;;;;;22.00;74.20;;;;;;5009432;28;87251;-43
2023/06/26 04:29:39;;;;;;;;;;;22.00;74.20;;;;;;5002693;28;88951;-43
2023/06/26 04:32:05;;;;;;;;;;;22.00;74.30;;;;;;5013025;28;86918;-43
2023/06/26 04:34:32;;;;;;;;;;;22.00;74.30;;;;;;5012133;28;87088;-43
2023/06/26 04:36:58;;;;;;;;;;;22.00;74.30;;;;;;5015372;28;88806;-45
2023/06/26 04:39:23;;;;;;;;;;;22.00;74.30;;;;;;5004327;28;88125;-43
2023/06/26 04:41:49;;;;;;;;;;;22.00;74.30;;;;;;5015254;28;87124;-43
2023/06/26 04:44:14;;;;;;;;;;;22.00;74.30;;;;;;5012802;28;87998;-43
2023/06/26 04:46:43;;;;;;;;;;;22.00;74.30;;;;;;4998408;28;88247;-43
2023/06/26 04:49:09;;;;;;;;;;;22.00;74.30;;;;;;5000649;28;88775;-44
2023/06/26 04:51:40;;;;;;;;;;;22.00;74.30;;;;;;5015034;28;88015;-45
2023/06/26 04:54:08;;;;;;;;;;;22.00;74.30;;;;;;5013792;28;87113;-43
2023/06/26 04:56:35;;;;;;;;;;;21.90;74.40;;;;;;5008086;28;88685;-43
2023/06/26 04:59:00;;;;;;;;;;;22.00;74.30;;;;;;5000921;28;89575;-43
2023/06/26 05:01:29;;;;;;;;;;;22.00;74.30;;;;;;5014752;28;87181;-42
2023/06/26 05:03:55;;;;;;;;;;;21.90;74.30;;;;;;5006319;28;88820;-43
2023/06/26 05:06:20;;;;;;;;;;;21.90;74.30;;;;;;4999080;28;87510;-44
2023/06/26 05:08:46;;;;;;;;;;;21.90;74.30;;;;;;5006452;28;87649;-44
2023/06/26 05:11:11;;;;;;;;;;;21.90;74.30;;;;;;5011714;28;88084;-44
2023/06/26 05:13:37;;;;;;;;;;;21.90;74.40;;;;;;5004595;28;87057;-43
2023/06/26 05:16:03;;;;;;;;;;;21.90;74.30;;;;;;5004900;28;90679;-42
2023/06/26 05:18:28;;;;;;;;;;;21.90;74.30;;;;;;5008390;28;89374;-43
2023/06/26 05:20:54;;;;;;;;;;;21.90;74.30;;;;;;5011710;28;86450;-44
2023/06/26 05:23:21;;;;;;;;;;;21.90;74.30;;;;;;5002904;28;88693;-44
2023/06/26 05:25:46;;;;;;;;;;;21.90;74.30;;;;;;5012103;28;89231;-44
2023/06/26 05:28:13;;;;;;;;;;;21.90;74.40;;;;;;5010876;28;87997;-43
2023/06/26 05:30:38;;;;;;;;;;;21.90;74.40;;;;;;5011688;28;88083;-46
2023/06/26 05:33:05;;;;;;;;;;;21.90;74.40;;;;;;5005464;28;87453;-45
2023/06/26 05:35:31;;;;;;;;;;;21.90;74.40;;;;;;5006837;28;88139;-45
2023/06/26 05:37:58;;;;;;;;;;;21.90;74.30;;;;;;5010717;28;88008;-46
2023/06/26 05:40:24;;;;;;;;;;;21.90;74.30;;;;;;5013308;28;87103;-46
2023/06/26 05:42:50;;;;;;;;;;;21.90;74.30;;;;;;5000366;28;89143;-44
2023/06/26 05:45:15;;;;;;;;;;;22.00;74.30;;;;;;5006355;28;86673;-44
2023/06/26 05:47:41;;;;;;;;;;;21.90;74.20;;;;;;5011424;28;88504;-44
2023/06/26 05:50:08;;;;;;;;;;;21.90;74.20;;;;;;5010670;28;89306;-46
2023/06/26 05:52:33;;;;;;;;;;;21.90;74.30;;;;;;5002239;28;88074;-44
2023/06/26 05:54:59;;;;;;;;;;;21.90;74.30;;;;;;5003857;28;89812;-46
2023/06/26 05:57:27;;;;;;;;;;;21.90;74.30;;;;;;5012656;28;89347;-49
2023/06/26 05:59:52;;;;;;;;;;;21.90;74.30;;;;;;5006047;28;87121;-44
2023/06/26 06:02:18;;;;;;;;;;;21.90;74.30;;;;;;5002623;28;87231;-44
2023/06/26 06:04:43;;;;;;;;;;;21.90;74.40;;;;;;5003242;28;88583;-45
2023/06/26 06:07:09;;;;;;;;;;;21.90;74.40;;;;;;5014582;28;87919;-47
2023/06/26 06:09:34;;;;;;;;;;;21.90;74.30;;;;;;5009448;28;87273;-43
2023/06/26 06:12:01;;;;;;;;;;;21.90;74.30;;;;;;5006073;28;87166;-45
2023/06/26 06:14:27;;;;;;;;;;;21.80;74.20;;;;;;5005846;28;87076;-44
2023/06/26 06:16:52;;;;;;;;;;;21.90;74.30;;;;;;5013079;28;89187;-44
2023/06/26 06:19:18;;;;;;;;;;;21.80;74.30;;;;;;4998548;28;87159;-44
2023/06/26 06:21:43;;;;;;;;;;;21.80;74.30;;;;;;5000757;28;87490;-45
2023/06/26 06:24:09;;;;;;;;;;;21.80;74.30;;;;;;5010401;28;87981;-43
2023/06/26 06:26:35;;;;;;;;;;;21.80;74.40;;;;;;5010769;28;87284;-44
2023/06/26 06:29:00;;;;;;;;;;;21.80;74.40;;;;;;5009343;28;87267;-43
2023/06/26 06:31:28;;;;;;;;;;;21.80;74.40;;;;;;5002816;28;87190;-43
2023/06/26 06:33:56;;;;;;;;;;;21.90;74.40;;;;;;5008675;28;88894;-43
2023/06/26 06:36:21;;;;;;;;;;;21.80;74.40;;;;;;5010402;28;88020;-43
2023/06/26 06:38:47;;;;;;;;;;;21.80;74.50;;;;;;5004709;28;87449;-44
2023/06/26 06:41:13;;;;;;;;;;;21.80;74.50;;;;;;5004741;28;88133;-43
2023/06/26 06:43:39;;;;;;;;;;;21.80;74.50;;;;;;5009619;28;88029;-43
2023/06/26 06:46:04;;;;;;;;;;;21.80;74.50;;;;;;5012833;28;87154;-43
2023/06/26 06:48:30;;;;;;;;;;;21.80;74.50;;;;;;5001345;28;87880;-43
2023/06/26 06:50:56;;;;;;;;;;;21.80;74.40;;;;;;5006939;28;87986;-43
2023/06/26 06:53:22;;;;;;;;;;;21.80;74.30;;;;;;5010373;28;90386;-43
2023/06/26 06:55:48;;;;;;;;;;;21.80;74.30;;;;;;5010859;28;89374;-43
2023/06/26 06:58:14;;;;;;;;;;;21.80;74.30;;;;;;5007155;28;88062;-44
2023/06/26 07:00:39;;;;;;;;;;;21.80;74.40;;;;;;5003043;28;87959;-44
2023/06/26 07:03:05;;;;;;;;;;;21.80;74.20;;;;;;5008567;28;88080;-42
2023/06/26 07:05:30;;;;;;;;;;;21.80;74.20;;;;;;5008598;28;88260;-45
2023/06/26 07:07:56;;;;;;;;;;;21.80;74.20;;;;;;5003266;28;88342;-43
2023/06/26 07:10:21;;;;;;;;;;;21.90;74.20;;;;;;4999352;28;88196;-43
2023/06/26 07:12:47;;;;;;;;;;;21.90;74.20;;;;;;5013464;28;87133;-43
2023/06/26 07:15:12;;;;;;;;;;;21.90;74.20;;;;;;5007286;28;87300;-45
2023/06/26 07:17:39;;;;;;;;;;;21.80;74.20;;;;;;4991837;28;87146;-44
2023/06/26 07:20:06;;;;;;;;;;;21.80;74.30;;;;;;5006843;28;88611;-46
2023/06/26 07:22:32;;;;;;;;;;;21.80;74.30;;;;;;5005953;28;88185;-43
2023/06/26 07:24:57;;;;;;;;;;;21.80;74.30;;;;;;5013991;28;87128;-43
2023/06/26 07:27:23;;;;;;;;;;;21.80;74.40;;;;;;4996698;28;88994;-43
2023/06/26 07:29:49;;;;;;;;;;;21.80;74.30;;;;;;5000763;28;88913;-43
2023/06/26 07:32:14;;;;;;;;;;;21.90;74.30;;;;;;5010118;28;87461;-43
2023/06/26 07:34:40;;;;;;;;;;;21.90;74.30;;;;;;5009190;28;88739;-44
2023/06/26 07:37:05;;;;;;;;;;;21.80;74.10;;;;;;5003953;28;87987;-43
2023/06/26 07:39:31;;;;;;;;;;;21.80;74.20;;;;;;5004647;28;88206;-46
2023/06/26 07:41:59;;;;;;;;;;;21.90;74.20;;;;;;5010924;28;88253;-43
2023/06/26 07:44:24;;;;;;;;;;;21.90;74.20;;;;;;5001656;28;87763;-43
2023/06/26 07:46:50;;;;;;;;;;;21.90;74.20;;;;;;5007803;28;87489;-44
2023/06/26 07:49:15;;;;;;;;;;;21.80;74.20;;;;;;5006790;28;89554;-44
2023/06/26 07:51:41;;;;;;;;;;;21.80;74.20;;;;;;5014567;28;87216;-43
2023/06/26 07:54:06;;;;;;;;;;;21.90;74.10;;;;;;5010854;28;88628;-43
2023/06/26 07:56:35;;;;;;;;;;;21.90;74.10;;;;;;5002748;28;87176;-44
2023/06/26 07:59:04;;;;;;;;;;;21.90;74.00;;;;;;5012510;28;87398;-43
2023/06/26 08:01:29;;;;;;;;;;;21.90;74.00;;;;;;5014123;28;87010;-43
2023/06/26 08:03:55;;;;;;;;;;;21.90;73.90;;;;;;5009474;28;88155;-43
2023/06/26 08:06:20;;;;;;;;;;;21.90;73.90;;;;;;4999657;28;89505;-43
2023/06/26 08:08:46;;;;;;;;;;;21.90;74.00;;;;;;5005186;28;88197;-43
2023/06/26 08:11:11;;;;;;;;;;;21.90;74.00;;;;;;5014206;28;87200;-43
2023/06/26 08:13:37;;;;;;;;;;;21.90;74.20;;;;;;5013672;28;87222;-44
2023/06/26 08:16:02;;;;;;;;;;;21.80;74.30;;;;;;5003119;28;87998;-43
2023/06/26 08:18:28;;;;;;;;;;;21.80;74.30;;;;;;5009483;28;88116;-43
2023/06/26 08:20:53;;;;;;;;;;;21.80;74.30;;;;;;5012009;28;88034;-44
2023/06/26 08:23:19;;;;;;;;;;;21.80;74.30;;;;;;5013791;28;87209;-43
2023/06/26 08:25:44;;;;;;;;;;;21.90;74.30;;;;;;5005326;28;88813;-44
2023/06/26 08:28:09;;;;;;;;;;;21.90;74.20;;;;;;5010139;28;87305;-44
2023/06/26 08:30:35;;;;;;;;;;;21.90;74.30;;;;;;5012762;28;87413;-43
2023/06/26 08:33:00;;;;;;;;;;;21.90;74.20;;;;;;5010946;28;87458;-43
2023/06/26 08:35:26;;;;;;;;;;;21.90;74.20;;;;;;5002086;28;87955;-44
2023/06/26 08:37:54;;;;;;;;;;;21.90;74.10;;;;;;5017677;28;87323;-43
2023/06/26 08:40:20;;;;;;;;;;;21.90;74.00;;;;;;5013431;28;89254;-45
2023/06/26 08:42:46;;;;;;;;;;;21.90;74.10;;;;;;5012901;28;88349;-44
2023/06/26 08:45:12;;;;;;;;;;;21.90;73.90;;;;;;5012841;28;90152;-43
2023/06/26 08:47:38;;;;;;;;;;;21.90;73.90;;;;;;5013662;28;87610;-43
2023/06/26 08:50:09;;;;;;;;;;;22.00;73.90;;;;;;5011009;28;87167;-45
2023/06/26 08:52:43;;;;;;;;;;;21.90;73.80;;;;;;5012942;28;87108;-44
2023/06/26 08:55:10;;;;;;;;;;;22.00;73.90;;;;;;5015288;28;87270;-43
2023/06/26 08:57:36;;;;;;;;;;;21.90;73.90;;;;;;5010275;28;87000;-46
2023/06/26 09:00:02;;;;;;;;;;;22.00;73.90;;;;;;5017583;28;87906;-44
2023/06/26 09:02:28;;;;;;;;;;;21.90;73.70;;;;;;5011603;28;87113;-44
2023/06/26 09:04:54;;;;;;;;;;;22.00;73.90;;;;;;5014048;28;87923;-44
2023/06/26 09:07:19;;;;;;;;;;;21.90;73.80;;;;;;5011109;28;88682;-44
2023/06/26 09:09:45;;;;;;;;;;;22.00;73.80;;;;;;5013567;28;87259;-43
2023/06/26 09:12:10;;;;;;;;;;;22.00;73.80;;;;;;5012020;28;87503;-43
2023/06/26 09:14:36;;;;;;;;;;;22.00;73.80;;;;;;5012453;28;88084;-44
2023/06/26 09:17:02;;;;;;;;;;;22.00;73.70;;;;;;5013292;28;87091;-43
2023/06/26 09:19:27;;;;;;;;;;;22.00;73.70;;;;;;5011776;28;87076;-44
2023/06/26 09:21:54;;;;;;;;;;;22.00;73.80;;;;;;5015803;28;88996;-43
2023/06/26 09:24:20;;;;;;;;;;;22.00;73.80;;;;;;5013656;28;86642;-44
2023/06/26 09:26:46;;;;;;;;;;;22.00;73.80;;;;;;5011433;28;88028;-43
2023/06/26 09:29:13;;;;;;;;;;;22.00;73.80;;;;;;5012880;28;87160;-44
2023/06/26 09:31:39;;;;;;;;;;;22.00;73.90;;;;;;5012879;28;88018;-46
2023/06/26 09:34:04;;;;;;;;;;;22.00;73.80;;;;;;5010785;28;88134;-46
2023/06/26 09:36:33;;;;;;;;;;;22.00;73.70;;;;;;5013212;28;87385;-44
2023/06/26 09:39:02;;;;;;;;;;;22.00;73.70;;;;;;5012418;28;87775;-44
2023/06/26 09:41:28;;;;;;;;;;;22.00;73.70;;;;;;5009131;28;88099;-43
2023/06/26 09:43:55;;;;;;;;;;;22.10;73.70;;;;;;5013948;28;87019;-43
2023/06/26 09:46:27;;;;;;;;;;;22.00;73.60;;;;;;5012397;28;88282;-43
2023/06/26 09:49:06;;;;;;;;;;;22.00;73.60;;;;;;5011098;28;86657;-44
2023/06/26 09:51:32;;;;;;;;;;;22.00;73.60;;;;;;5014667;28;87300;-43
2023/06/26 09:53:58;;;;;;;;;;;22.10;73.50;;;;;;5010159;28;88101;-45
2023/06/26 09:56:24;;;;;;;;;;;22.10;73.50;;;;;;5011153;28;88076;-46
2023/06/26 09:58:49;;;;;;;;;;;22.00;73.40;;;;;;5013315;28;88337;-46
2023/06/26 10:01:15;;;;;;;;;;;22.00;73.50;;;;;;5011112;28;87998;-46
2023/06/26 10:03:40;;;;;;;;;;;22.00;73.50;;;;;;5016128;28;87094;-43
2023/06/26 10:06:08;;;;;;;;;;;22.10;73.50;;;;;;5007482;28;87329;-45
2023/06/26 10:08:34;;;;;;;;;;;22.10;73.40;;;;;;5012920;28;87624;-46
2023/06/26 10:11:00;;;;;;;;;;;22.00;73.40;;;;;;5012004;28;87640;-47
2023/06/26 10:13:30;;;;;;;;;;;22.00;73.40;;;;;;5009264;28;88624;-44
2023/06/26 10:15:56;;;;;;;;;;;22.10;73.60;;;;;;5011497;28;87038;-47
2023/06/26 10:18:24;;;;;;;;;;;22.10;73.60;;;;;;5013224;28;88041;-45
2023/06/26 10:20:50;;;;;;;;;;;22.00;73.50;;;;;;5008012;28;88408;-46
2023/06/26 10:23:18;;;;;;;;;;;22.00;73.60;;;;;;5011205;28;86935;-46
2023/06/26 10:25:45;;;;;;;;;;;22.10;73.50;;;;;;5015325;28;87526;-48
2023/06/26 10:28:12;;;;;;;;;;;22.10;73.40;;;;;;5005022;28;87098;-45
2023/06/26 10:30:38;;;;;;;;;;;22.10;73.40;;;;;;5012756;28;87966;-44
2023/06/26 10:33:05;;;;;;;;;;;22.10;73.50;;;;;;5008929;28;87638;-48
2023/06/26 10:35:31;;;;;;;;;;;22.10;73.50;;;;;;5008258;28;87062;-46
2023/06/26 10:38:02;;;;;;;;;;;22.10;73.50;;;;;;5012774;28;87386;-48
2023/06/26 10:40:28;;;;;;;;;;;22.10;73.40;;;;;;5010099;28;89448;-44
2023/06/26 10:43:08;;;;;;;;;;;22.20;73.40;;;;;;5008711;28;89062;-45
2023/06/26 10:45:33;;;;;;;;;;;22.20;73.30;;;;;;5006232;28;88038;-43
2023/06/26 10:47:59;;;;;;;;;;;22.20;73.40;;;;;;5014657;28;87642;-46
2023/06/26 10:50:31;;;;;;;;;;;22.20;73.50;;;;;;5008559;28;87711;-45
2023/06/26 10:53:09;;;;;;;;;;;22.10;73.30;;;;;;5012164;28;88018;-47
2023/06/26 10:55:35;;;;;;;;;;;22.10;73.40;;;;;;5011440;28;87096;-45
2023/06/26 10:58:02;;;;;;;;;;;22.20;73.30;;;;;;5009184;28;87550;-43
2023/06/26 11:00:28;;;;;;;;;;;22.20;73.20;;;;;;5010926;28;89573;-45
2023/06/26 11:02:53;;;;;;;;;;;22.20;73.30;;;;;;5011350;28;86390;-43
2023/06/26 11:05:29;;;;;;;;;;;22.20;73.30;;;;;;5009845;28;88196;-44
2023/06/26 11:08:06;;;;;;;;;;;22.20;73.30;;;;;;5011586;28;88029;-43
2023/06/26 11:10:48;;;;;;;;;;;22.20;73.30;;;;;;5007682;28;88557;-44
2023/06/26 11:13:14;;;;;;;;;;;22.20;73.40;;;;;;5007029;28;88118;-45
2023/06/26 11:15:42;;;;;;;;;;;22.20;73.40;;;;;;5010240;28;87086;-45
2023/06/26 11:18:08;;;;;;;;;;;22.20;73.40;;;;;;5011606;28;87370;-44
2023/06/26 11:20:33;;;;;;;;;;;22.20;73.40;;;;;;5008951;28;88053;-45
2023/06/26 11:22:59;;;;;;;;;;;22.20;73.40;;;;;;5010179;28;87082;-44
2023/06/26 11:25:24;;;;;;;;;;;22.30;73.50;;;;;;5013659;28;87281;-44
2023/06/26 11:27:52;;;;;;;;;;;22.20;73.40;;;;;;5011870;28;87502;-43
2023/06/26 11:30:25;;;;;;;;;;;22.20;73.40;;;;;;5012774;28;87513;-44
2023/06/26 11:32:50;;;;;;;;;;;22.30;73.40;;;;;;5017491;28;88558;-44
2023/06/26 11:35:29;;;;;;;;;;;22.30;73.40;;;;;;5010833;28;88450;-43
2023/06/26 11:38:04;;;;;;;;;;;22.30;73.40;;;;;;5011436;28;90551;-44
2023/06/26 11:40:31;;;;;;;;;;;22.30;73.50;;;;;;5008672;28;87639;-44
2023/06/26 11:43:03;;;;;;;;;;;22.30;73.50;;;;;;5013558;28;87722;-43
2023/06/26 11:45:30;;;;;;;;;;;22.30;73.40;;;;;;5011626;28;87497;-44
2023/06/26 11:47:59;;;;;;;;;;;22.30;73.30;;;;;;5014815;28;88206;-43
2023/06/26 11:50:25;;;;;;;;;;;22.30;73.30;;;;;;5014540;28;87057;-45
2023/06/26 11:52:55;;;;;;;;;;;22.40;73.20;;;;;;5017747;28;87324;-45
2023/06/26 11:55:20;;;;;;;;;;;22.40;73.20;;;;;;5013979;28;87424;-44
2023/06/26 11:57:56;;;;;;;;;;;22.40;73.10;;;;;;5014914;28;87499;-44
2023/06/26 12:00:21;;;;;;;;;;;22.40;73.10;;;;;;5010547;28;89170;-43
2023/06/26 12:02:47;;;;;;;;;;;22.50;73.10;;;;;;5015109;28;87112;-44
2023/06/26 12:05:16;;;;;;;;;;;22.40;73.60;;;;;;5012540;28;88567;-43
2023/06/26 12:07:43;;;;;;;;;;;22.50;73.10;;;;;;5013808;28;88154;-43
2023/06/26 12:10:10;;;;;;;;;;;22.50;73.10;;;;;;5013099;28;87734;-45
2023/06/26 12:12:36;;;;;;;;;;;22.50;73.10;;;;;;5014943;28;87552;-43
2023/06/26 12:15:02;;;;;;;;;;;22.50;73.10;;;;;;5010076;28;88317;-44
2023/06/26 12:17:27;;;;;;;;;;;22.50;73.10;;;;;;5014173;28;87420;-44
2023/06/26 12:19:53;;;;;;;;;;;22.50;72.90;;;;;;5013657;28;89228;-44
2023/06/26 12:22:18;;;;;;;;;;;22.50;73.00;;;;;;5012351;28;87162;-44
2023/06/26 12:24:45;;;;;;;;;;;22.60;72.90;;;;;;5013116;28;87963;-44
2023/06/26 12:27:11;;;;;;;;;;;22.60;72.90;;;;;;5012232;28;89311;-44
2023/06/26 12:29:38;;;;;;;;;;;22.50;72.90;;;;;;5008285;28;87114;-45
2023/06/26 12:32:03;;;;;;;;;;;22.60;73.00;;;;;;5012937;28;87747;-43
2023/06/26 12:34:33;;;;;;;;;;;22.50;73.00;;;;;;5011763;28;87952;-44
2023/06/26 12:37:06;;;;;;;;;;;22.50;73.00;;;;;;5013227;28;87183;-43
2023/06/26 12:39:50;;;;;;;;;;;22.50;72.80;;;;;;5012752;28;87784;-45
2023/06/26 12:42:25;;;;;;;;;;;22.50;72.80;;;;;;5008198;28;86758;-44
2023/06/26 12:44:51;;;;;;;;;;;22.50;72.90;;;;;;5014297;28;87573;-43
2023/06/26 12:47:23;;;;;;;;;;;22.60;72.70;;;;;;5012673;28;89076;-44
2023/06/26 12:49:52;;;;;;;;;;;22.60;72.70;;;;;;5012185;28;88114;-44
2023/06/26 12:52:20;;;;;;;;;;;22.60;72.70;;;;;;5013050;28;88499;-43
2023/06/26 12:54:46;;;;;;;;;;;22.60;72.60;;;;;;5013974;28;88042;-44
2023/06/26 12:57:16;;;;;;;;;;;22.70;72.70;;;;;;5013146;28;87068;-48
2023/06/26 12:59:41;;;;;;;;;;;22.70;72.50;;;;;;5017398;28;87918;-43
2023/06/26 13:02:08;;;;;;;;;;;22.70;72.60;;;;;;5012574;28;87042;-44
2023/06/26 13:04:33;;;;;;;;;;;22.70;72.70;;;;;;5014094;28;87234;-43
2023/06/26 13:06:59;;;;;;;;;;;22.70;72.50;;;;;;5012253;28;87393;-43
2023/06/26 13:09:25;;;;;;;;;;;22.70;72.60;;;;;;5012827;28;87220;-44
2023/06/26 13:11:51;;;;;;;;;;;22.70;72.50;;;;;;5012638;28;87719;-44
2023/06/26 13:14:16;;;;;;;;;;;22.70;72.50;;;;;;5011328;28;89059;-43
2023/06/26 13:16:42;;;;;;;;;;;22.70;72.60;;;;;;5012180;28;87476;-43
2023/06/26 13:19:07;;;;;;;;;;;22.80;72.60;;;;;;5007874;28;87538;-43
2023/06/26 13:21:33;;;;;;;;;;;22.80;72.60;;;;;;5015090;28;88102;-45
2023/06/26 13:23:59;;;;;;;;;;;22.90;72.70;;;;;;5011100;28;87412;-43
2023/06/26 13:26:26;;;;;;;;;;;22.80;72.60;;;;;;5012653;28;87633;-43
2023/06/26 13:28:52;;;;;;;;;;;22.90;72.50;;;;;;5010467;28;87138;-44
2023/06/26 13:31:17;;;;;;;;;;;22.80;72.50;;;;;;5013149;28;87675;-44
2023/06/26 13:33:44;;;;;;;;;;;22.90;72.60;;;;;;5011373;28;88293;-44
2023/06/26 13:36:10;;;;;;;;;;;22.90;72.50;;;;;;5010443;28;86994;-44
2023/06/26 13:38:35;;;;;;;;;;;22.90;72.60;;;;;;5013823;28;88517;-45
2023/06/26 13:41:01;;;;;;;;;;;22.90;72.50;;;;;;5010302;28;88178;-44
2023/06/26 13:43:27;;;;;;;;;;;22.90;72.40;;;;;;5013992;28;87011;-43
2023/06/26 13:45:53;;;;;;;;;;;23.00;72.40;;;;;;5010065;28;88816;-45
2023/06/26 13:48:19;;;;;;;;;;;23.00;72.40;;;;;;5013995;28;87235;-44
2023/06/26 13:50:45;;;;;;;;;;;23.00;72.40;;;;;;5011436;28;87515;-43
2023/06/26 13:53:10;;;;;;;;;;;23.00;72.40;;;;;;5009946;28;88894;-44
2023/06/26 13:55:37;;;;;;;;;;;23.00;72.40;;;;;;5014505;28;86546;-44
2023/06/26 13:58:06;;;;;;;;;;;23.00;72.40;;;;;;5011500;28;87570;-45
2023/06/26 14:00:33;;;;;;;;;;;23.00;72.30;;;;;;5009921;28;88087;-44
2023/06/26 14:02:59;;;;;;;;;;;23.00;72.20;;;;;;5015830;28;88197;-44
2023/06/26 14:05:25;;;;;;;;;;;23.10;72.20;;;;;;5010915;28;88459;-44
2023/06/26 14:07:50;;;;;;;;;;;23.00;72.20;;;;;;5011466;28;87165;-44
2023/06/26 14:10:16;;;;;;;;;;;23.10;72.20;;;;;;5011750;28;87372;-43
2023/06/26 14:12:41;;;;;;;;;;;23.10;72.20;;;;;;5010146;28;88096;-46